createdAt,value
2023-06-06T00:00:16.865Z,1759.00
2023-06-06T00:01:16.847Z,1762.00
2023-06-06T00:02:16.889Z,1770.00
2023-06-06T00:03:16.875Z,1751.00
2023-06-06T00:04:16.855Z,1752.00
2023-06-06T00:05:16.835Z,1774.00
2023-06-06T00:06:16.816Z,1765.00
2023-06-06T00:07:16.788Z,1773.00
2023-06-06T00:08:16.809Z,1765.00
2023-06-06T00:09:16.794Z,1744.00
2023-06-06T00:10:16.814Z,1759.00
2023-06-06T00:11:16.774Z,1739.00
2023-06-06T00:12:16.757Z,1750.00
2023-06-06T00:13:16.765Z,1761.00
2023-06-06T00:14:16.763Z,1757.00
2023-06-06T00:15:16.784Z,1755.00
2023-06-06T00:16:16.795Z,1752.00
2023-06-06T00:17:16.754Z,1757.00
2023-06-06T00:18:16.879Z,1747.00
2023-06-06T00:19:16.711Z,1757.00
2023-06-06T00:20:16.741Z,1748.00
2023-06-06T00:21:16.703Z,1749.00
2023-06-06T00:22:16.725Z,1761.00
2023-06-06T00:23:16.688Z,1766.00
2023-06-06T00:24:16.697Z,1766.00
2023-06-06T00:25:16.711Z,1751.00
2023-06-06T00:26:16.674Z,1769.00
2023-06-06T00:27:16.660Z,1761.00
2023-06-06T00:28:16.673Z,1762.00
2023-06-06T00:29:16.652Z,1758.00
2023-06-06T00:30:16.645Z,1762.00
2023-06-06T00:31:16.681Z,1754.00
2023-06-06T00:32:16.650Z,1750.00
2023-06-06T00:33:16.649Z,1754.00
2023-06-06T00:34:16.643Z,1747.00
2023-06-06T00:35:16.636Z,1733.00
2023-06-06T00:36:16.627Z,1733.00
2023-06-06T00:37:16.660Z,1728.00
2023-06-06T00:38:16.645Z,1736.00
2023-06-06T00:39:16.689Z,1724.00
2023-06-06T00:40:16.775Z,1732.00
2023-06-06T00:41:16.950Z,1737.00
2023-06-06T00:42:17.101Z,1727.00
2023-06-06T00:43:17.250Z,1743.00
2023-06-06T00:44:17.504Z,1748.00
2023-06-06T00:45:17.631Z,1750.00
2023-06-06T00:46:17.835Z,1761.00
2023-06-06T00:47:18.013Z,1761.00
2023-06-06T00:48:18.229Z,1776.00
2023-06-06T00:49:18.421Z,1781.00
2023-06-06T00:50:18.623Z,1799.00
2023-06-06T00:51:18.728Z,1816.00
2023-06-06T00:52:19.028Z,1825.00
2023-06-06T00:53:19.095Z,1823.00
2023-06-06T00:54:19.285Z,1838.00
2023-06-06T00:55:19.447Z,1851.00
2023-06-06T00:56:19.727Z,1868.00
2023-06-06T00:57:19.933Z,1859.00
2023-06-06T00:58:20.121Z,1869.00
2023-06-06T00:59:20.232Z,1879.00
2023-06-06T01:00:20.391Z,1883.00
2023-06-06T01:01:20.577Z,1879.00
2023-06-06T01:02:20.589Z,1896.00
2023-06-06T01:03:20.558Z,1897.00
2023-06-06T01:04:20.543Z,1886.00
2023-06-06T01:05:20.638Z,1909.00
2023-06-06T01:06:20.514Z,1884.00
2023-06-06T01:07:20.527Z,1892.00
2023-06-06T01:08:20.503Z,1895.00
2023-06-06T01:09:20.516Z,1899.00
2023-06-06T01:10:20.499Z,1885.00
2023-06-06T01:11:20.502Z,1880.00
2023-06-06T01:12:20.468Z,1869.00
2023-06-06T01:13:20.453Z,1887.00
2023-06-06T01:14:20.513Z,1898.00
2023-06-06T01:15:20.517Z,1883.00
2023-06-06T01:16:20.544Z,1894.00
2023-06-06T01:17:20.480Z,1885.00
2023-06-06T01:18:20.488Z,1885.00
2023-06-06T01:19:20.493Z,1902.00
2023-06-06T01:20:20.563Z,1892.00
2023-06-06T01:21:20.530Z,1885.00
2023-06-06T01:22:20.536Z,1881.00
2023-06-06T01:23:20.596Z,1888.00
2023-06-06T01:24:20.542Z,1889.00
2023-06-06T01:25:20.661Z,1908.00
2023-06-06T01:26:20.500Z,1891.00
2023-06-06T01:27:20.495Z,1888.00
2023-06-06T01:28:20.504Z,1905.00
2023-06-06T01:29:20.478Z,1897.00
2023-06-06T01:30:20.474Z,1902.00
2023-06-06T01:31:20.517Z,1884.00
2023-06-06T01:32:20.526Z,1887.00
2023-06-06T01:33:20.461Z,1900.00
2023-06-06T01:34:20.457Z,1899.00
2023-06-06T01:35:20.435Z,1893.00
2023-06-06T01:36:20.442Z,1896.00
2023-06-06T01:37:20.472Z,1880.00
2023-06-06T01:38:20.495Z,1883.00
2023-06-06T01:39:20.522Z,1881.00
2023-06-06T01:40:20.503Z,1880.00
2023-06-06T01:41:20.476Z,1878.00
2023-06-06T01:42:20.434Z,1864.00
2023-06-06T01:43:20.441Z,1857.00
2023-06-06T01:44:20.448Z,1877.00
2023-06-06T01:45:20.420Z,1858.00
2023-06-06T01:46:20.460Z,1861.00
2023-06-06T01:47:20.470Z,1867.00
2023-06-06T01:48:20.402Z,1872.00
2023-06-06T01:49:20.393Z,1871.00
2023-06-06T01:50:20.387Z,1880.00
2023-06-06T01:51:20.398Z,1872.00
2023-06-06T01:52:20.384Z,1881.00
2023-06-06T01:53:20.371Z,1883.00
2023-06-06T01:54:20.360Z,1880.00
2023-06-06T01:55:20.361Z,1869.00
2023-06-06T01:56:20.340Z,1875.00
2023-06-06T01:57:20.352Z,1866.00
2023-06-06T01:58:20.385Z,1852.00
2023-06-06T01:59:20.350Z,1840.00
2023-06-06T02:00:20.340Z,1836.00
2023-06-06T02:01:20.358Z,1816.00
2023-06-06T02:02:20.466Z,1811.00
2023-06-06T02:03:20.357Z,1791.00
2023-06-06T02:04:20.298Z,1786.00
2023-06-06T02:05:20.334Z,1769.00
2023-06-06T02:06:20.288Z,1756.00
2023-06-06T02:07:20.290Z,1731.00
2023-06-06T02:08:20.272Z,1731.00
2023-06-06T02:09:20.279Z,1722.00
2023-06-06T02:10:20.282Z,1719.00
2023-06-06T02:11:20.252Z,1711.00
2023-06-06T02:12:20.278Z,1720.00
2023-06-06T02:13:20.255Z,1719.00
2023-06-06T02:14:20.243Z,1736.00
2023-06-06T02:15:20.227Z,1727.00
2023-06-06T02:16:20.293Z,1742.00
2023-06-06T02:17:20.312Z,1742.00
2023-06-06T02:18:20.227Z,1759.00
2023-06-06T02:19:20.219Z,1765.00
2023-06-06T02:20:20.219Z,1783.00
2023-06-06T02:21:20.192Z,1811.00
2023-06-06T02:22:20.187Z,1821.00
2023-06-06T02:23:20.179Z,1827.00
2023-06-06T02:24:20.210Z,1835.00
2023-06-06T02:25:20.259Z,1856.00
2023-06-06T02:26:20.243Z,1878.00
2023-06-06T02:27:20.253Z,1876.00
2023-06-06T02:28:20.252Z,1879.00
2023-06-06T02:29:20.290Z,1902.00
2023-06-06T02:30:20.289Z,1907.00
2023-06-06T02:31:20.421Z,1904.00
2023-06-06T02:32:20.451Z,1916.00
2023-06-06T02:33:20.473Z,1917.00
2023-06-06T02:34:20.466Z,1918.00
2023-06-06T02:35:20.454Z,1937.00
2023-06-06T02:36:20.491Z,1932.00
2023-06-06T02:37:20.494Z,1933.00
2023-06-06T02:38:20.648Z,1926.00
2023-06-06T02:39:20.592Z,1953.00
2023-06-06T02:40:20.597Z,1939.00
2023-06-06T02:41:20.628Z,1951.00
2023-06-06T02:42:20.642Z,1949.00
2023-06-06T02:43:20.709Z,1947.00
2023-06-06T02:44:20.779Z,1951.00
2023-06-06T02:45:20.766Z,1949.00
2023-06-06T02:46:20.853Z,1951.00
2023-06-06T02:47:20.784Z,1945.00
2023-06-06T02:48:20.817Z,1954.00
2023-06-06T02:49:20.815Z,1934.00
2023-06-06T02:50:20.812Z,1942.00
2023-06-06T02:51:20.819Z,1951.00
2023-06-06T02:52:20.849Z,1947.00
2023-06-06T02:53:20.847Z,1948.00
2023-06-06T02:54:20.957Z,1942.00
2023-06-06T02:55:21.110Z,1954.00
2023-06-06T02:56:21.246Z,1960.00
2023-06-06T02:57:21.372Z,1944.00
2023-06-06T02:58:21.498Z,1955.00
2023-06-06T02:59:21.646Z,1940.00
2023-06-06T03:00:21.829Z,1939.00
2023-06-06T03:01:22.026Z,1956.00
2023-06-06T03:02:22.194Z,1945.00
2023-06-06T03:03:22.266Z,1936.00
2023-06-06T03:04:22.533Z,1932.00
2023-06-06T03:05:22.606Z,1916.00
2023-06-06T03:06:22.729Z,1914.00
2023-06-06T03:07:22.906Z,1908.00
2023-06-06T03:08:23.076Z,1882.00
2023-06-06T03:09:23.251Z,1874.00
2023-06-06T03:10:23.405Z,1861.00
2023-06-06T03:11:23.388Z,1855.00
2023-06-06T03:12:23.414Z,1841.00
2023-06-06T03:13:23.373Z,1828.00
2023-06-06T03:14:23.389Z,1807.00
2023-06-06T03:15:23.360Z,1807.00
2023-06-06T03:16:23.411Z,1797.00
2023-06-06T03:17:23.446Z,1791.00
2023-06-06T03:18:23.350Z,1785.00
2023-06-06T03:19:23.355Z,1759.00
2023-06-06T03:20:23.363Z,1751.00
2023-06-06T03:21:23.321Z,1736.00
2023-06-06T03:22:23.385Z,1737.00
2023-06-06T03:23:23.430Z,1714.00
2023-06-06T03:24:23.364Z,1704.00
2023-06-06T03:25:23.374Z,1684.00
2023-06-06T03:26:23.350Z,1670.00
2023-06-06T03:27:23.365Z,1660.00
2023-06-06T03:28:23.357Z,1648.00
2023-06-06T03:29:23.336Z,1626.00
2023-06-06T03:30:23.340Z,1607.00
2023-06-06T03:31:23.436Z,1607.00
2023-06-06T03:32:23.461Z,1596.00
2023-06-06T03:33:23.314Z,1589.00
2023-06-06T03:34:23.329Z,1579.00
2023-06-06T03:35:23.317Z,1569.00
2023-06-06T03:36:23.306Z,1550.00
2023-06-06T03:37:23.289Z,1552.00
2023-06-06T03:38:23.290Z,1549.00
2023-06-06T03:39:23.311Z,1538.00
2023-06-06T03:40:23.301Z,1531.00
2023-06-06T03:41:23.316Z,1519.00
2023-06-06T03:42:23.285Z,1498.00
2023-06-06T03:43:23.275Z,1514.00
2023-06-06T03:44:23.274Z,1485.00
2023-06-06T03:45:23.253Z,1483.00
2023-06-06T03:46:23.293Z,1482.00
2023-06-06T03:47:23.285Z,1495.00
2023-06-06T03:48:23.242Z,1461.00
2023-06-06T03:49:23.249Z,1464.00
2023-06-06T03:50:23.253Z,1464.00
2023-06-06T03:51:23.265Z,1470.00
2023-06-06T03:52:23.255Z,1449.00
2023-06-06T03:53:23.224Z,1437.00
2023-06-06T03:54:23.208Z,1457.00
2023-06-06T03:55:23.189Z,1439.00
2023-06-06T03:56:23.178Z,1441.00
2023-06-06T03:57:23.184Z,1449.00
2023-06-06T03:58:23.165Z,1436.00
2023-06-06T03:59:23.180Z,1440.00
2023-06-06T04:00:23.141Z,1434.00
2023-06-06T04:01:23.183Z,1406.00
2023-06-06T04:02:23.295Z,1429.00
2023-06-06T04:03:23.426Z,1420.00
2023-06-06T04:04:23.174Z,1414.00
2023-06-06T04:05:23.108Z,1403.00
2023-06-06T04:06:23.119Z,1398.00
2023-06-06T04:07:23.184Z,1411.00
2023-06-06T04:08:23.097Z,1401.00
2023-06-06T04:09:23.110Z,1407.00
2023-06-06T04:10:23.091Z,1388.00
2023-06-06T04:11:23.062Z,1386.00
2023-06-06T04:12:23.065Z,1390.00
2023-06-06T04:13:23.050Z,1389.00
2023-06-06T04:14:24.537Z,1402.00
2023-06-06T04:15:23.048Z,1385.00
2023-06-06T04:16:23.168Z,1392.00
2023-06-06T04:17:23.046Z,1384.00
2023-06-06T04:18:23.038Z,1382.00
2023-06-06T04:19:23.051Z,1386.00
2023-06-06T04:20:23.009Z,1391.00
2023-06-06T04:21:23.037Z,1382.00
2023-06-06T04:22:23.015Z,1380.00
2023-06-06T04:23:23.051Z,1383.00
2023-06-06T04:24:22.984Z,1389.00
2023-06-06T04:25:23.009Z,1392.00
2023-06-06T04:26:22.988Z,1377.00
2023-06-06T04:27:22.984Z,1392.00
2023-06-06T04:28:22.998Z,1403.00
2023-06-06T04:29:22.989Z,1407.00
2023-06-06T04:30:22.960Z,1407.00
2023-06-06T04:31:22.986Z,1411.00
2023-06-06T04:32:22.931Z,1403.00
2023-06-06T04:33:23.033Z,1419.00
2023-06-06T04:34:22.933Z,1412.00
2023-06-06T04:35:22.936Z,1413.00
2023-06-06T04:36:22.925Z,1426.00
2023-06-06T04:37:22.921Z,1420.00
2023-06-06T04:38:22.897Z,1432.00
2023-06-06T04:39:22.954Z,1453.00
2023-06-06T04:40:23.121Z,1467.00
2023-06-06T04:42:23.230Z,1487.00
2023-06-06T04:43:23.265Z,1493.00
2023-06-06T04:44:23.310Z,1519.00
2023-06-06T04:45:23.298Z,1521.00
2023-06-06T04:46:23.879Z,1530.00
2023-06-06T04:47:23.397Z,1529.00
2023-06-06T04:48:23.341Z,1546.00
2023-06-06T04:49:23.350Z,1549.00
2023-06-06T04:50:23.331Z,1544.00
2023-06-06T04:51:23.367Z,1572.00
2023-06-06T04:52:23.353Z,1586.00
2023-06-06T04:53:23.387Z,1561.00
2023-06-06T04:54:23.427Z,1568.00
2023-06-06T04:55:23.422Z,1550.00
2023-06-06T04:56:23.455Z,1552.00
2023-06-06T04:57:23.468Z,1541.00
2023-06-06T04:58:23.465Z,1516.00
2023-06-06T04:59:23.657Z,1510.00
2023-06-06T05:00:23.554Z,1495.00
2023-06-06T05:01:23.586Z,1491.00
2023-06-06T05:02:23.660Z,1497.00
2023-06-06T05:03:23.723Z,1480.00
2023-06-06T05:04:23.664Z,1460.00
2023-06-06T05:05:23.690Z,1448.00
2023-06-06T05:06:23.720Z,1445.00
2023-06-06T05:07:23.735Z,1452.00
2023-06-06T05:08:23.769Z,1449.00
2023-06-06T05:09:23.789Z,1454.00
2023-06-06T05:10:23.822Z,1432.00
2023-06-06T05:11:23.864Z,1427.00
2023-06-06T05:12:23.909Z,1421.00
2023-06-06T05:13:24.030Z,1421.00
2023-06-06T05:14:24.030Z,1414.00
2023-06-06T05:15:24.108Z,1407.00
2023-06-06T05:16:24.193Z,1402.00
2023-06-06T05:17:24.228Z,1399.00
2023-06-06T05:18:24.221Z,1400.00
2023-06-06T05:19:24.292Z,1401.00
2023-06-06T05:20:24.332Z,1418.00
2023-06-06T05:21:24.370Z,1422.00
2023-06-06T05:22:24.407Z,1415.00
2023-06-06T05:23:24.469Z,1424.00
2023-06-06T05:24:24.498Z,1428.00
2023-06-06T05:25:24.559Z,1442.00
2023-06-06T05:26:24.640Z,1449.00
2023-06-06T05:27:24.675Z,1458.00
2023-06-06T05:28:24.717Z,1468.00
2023-06-06T05:29:24.759Z,1534.00
2023-06-06T05:30:24.869Z,1700.00
2023-06-06T05:31:24.911Z,1912.00
2023-06-06T05:32:25.729Z,2103.00
2023-06-06T05:33:25.002Z,2246.00
2023-06-06T05:34:25.024Z,2349.00
2023-06-06T05:35:25.037Z,2477.00
2023-06-06T05:36:25.042Z,2552.00
2023-06-06T05:37:25.089Z,2595.00
2023-06-06T05:38:25.099Z,2608.00
2023-06-06T05:39:25.123Z,2609.00
2023-06-06T05:40:25.144Z,2605.00
2023-06-06T05:41:25.128Z,2616.00
2023-06-06T05:42:25.140Z,2622.00
2023-06-06T05:43:25.104Z,2654.00
2023-06-06T05:44:25.214Z,2663.00
2023-06-06T05:45:25.125Z,2694.00
2023-06-06T05:46:25.107Z,2726.00
2023-06-06T05:47:25.183Z,2731.00
2023-06-06T05:48:25.152Z,2763.00
2023-06-06T05:49:25.300Z,2762.00
2023-06-06T05:50:25.216Z,2744.00
2023-06-06T05:51:25.276Z,2729.00
2023-06-06T05:52:25.275Z,2745.00
2023-06-06T05:53:25.321Z,2744.00
2023-06-06T05:54:27.059Z,2732.00
2023-06-06T05:55:26.335Z,2731.00
2023-06-06T05:56:25.329Z,2718.00
2023-06-06T05:57:25.327Z,2719.00
2023-06-06T05:58:25.312Z,2717.00
2023-06-06T05:59:25.318Z,2706.00
2023-06-06T06:00:25.304Z,2698.00
2023-06-06T06:01:25.319Z,2685.00
2023-06-06T06:02:25.347Z,2693.00
2023-06-06T06:03:25.461Z,2671.00
2023-06-06T06:04:25.301Z,2669.00
2023-06-06T06:05:25.282Z,2653.00
2023-06-06T06:06:25.318Z,2650.00
2023-06-06T06:07:25.362Z,2639.00
2023-06-06T06:08:25.439Z,2639.00
2023-06-06T06:09:25.509Z,2617.00
2023-06-06T06:10:25.539Z,2642.00
2023-06-06T06:11:25.644Z,2640.00
2023-06-06T06:12:25.673Z,2561.00
2023-06-06T06:13:25.740Z,2572.00
2023-06-06T06:14:25.814Z,2506.00
2023-06-06T06:15:26.200Z,2434.00
2023-06-06T06:16:25.951Z,2360.00
2023-06-06T06:17:25.946Z,2223.00
2023-06-06T06:18:25.971Z,2098.00
2023-06-06T06:19:26.010Z,2016.00
2023-06-06T06:20:26.239Z,1992.00
2023-06-06T06:21:25.984Z,1936.00
2023-06-06T06:22:25.995Z,1882.00
2023-06-06T06:23:26.030Z,1830.00
2023-06-06T06:24:25.996Z,1785.00
2023-06-06T06:25:26.058Z,1750.00
2023-06-06T06:26:26.046Z,1724.00
2023-06-06T06:27:26.077Z,1725.00
2023-06-06T06:28:26.059Z,1676.00
2023-06-06T06:29:26.264Z,1640.00
2023-06-06T06:30:26.127Z,1620.00
2023-06-06T06:31:26.124Z,1603.00
2023-06-06T06:32:26.204Z,1610.00
2023-06-06T06:33:26.199Z,1737.00
2023-06-06T06:34:26.116Z,1825.00
2023-06-06T06:35:26.175Z,1916.00
2023-06-06T06:36:26.168Z,1998.00
2023-06-06T06:37:26.168Z,2086.00
2023-06-06T06:38:26.343Z,2141.00
2023-06-06T06:39:26.816Z,2144.00
2023-06-06T06:40:26.343Z,2187.00
2023-06-06T06:41:26.408Z,2226.00
2023-06-06T06:42:26.421Z,2170.00
2023-06-06T06:43:26.494Z,2190.00
2023-06-06T06:44:26.535Z,2229.00
2023-06-06T06:45:26.732Z,2235.00
2023-06-06T06:46:26.636Z,2209.00
2023-06-06T06:47:26.667Z,2260.00
2023-06-06T06:48:26.683Z,2273.00
2023-06-06T06:49:26.756Z,2314.00
2023-06-06T06:50:27.250Z,2296.00
2023-06-06T06:51:26.866Z,2308.00
2023-06-06T06:52:26.899Z,2317.00
2023-06-06T06:53:26.956Z,2338.00
2023-06-06T06:54:27.003Z,2360.00
2023-06-06T06:55:27.280Z,2396.00
2023-06-06T06:56:27.123Z,2408.00
2023-06-06T06:57:27.130Z,2407.00
2023-06-06T06:58:27.222Z,2431.00
2023-06-06T06:59:27.232Z,2438.00
2023-06-06T07:00:27.283Z,2440.00
2023-06-06T07:01:27.378Z,2436.00
2023-06-06T07:02:27.377Z,2429.00
2023-06-06T07:03:27.391Z,2448.00
2023-06-06T07:04:27.403Z,2451.00
2023-06-06T07:05:27.878Z,2455.00
2023-06-06T07:06:27.481Z,2443.00
2023-06-06T07:07:27.504Z,2437.00
2023-06-06T07:08:27.572Z,2456.00
2023-06-06T07:09:27.593Z,2421.00
2023-06-06T07:10:27.755Z,2401.00
2023-06-06T07:11:27.725Z,2279.00
2023-06-06T07:12:27.677Z,2223.00
2023-06-06T07:13:27.724Z,2278.00
2023-06-06T07:14:27.794Z,2289.00
2023-06-06T07:15:28.229Z,2280.00
2023-06-06T07:16:27.836Z,2294.00
2023-06-06T07:17:27.942Z,2283.00
2023-06-06T07:18:27.906Z,2272.00
2023-06-06T07:19:27.939Z,2271.00
2023-06-06T07:20:27.954Z,2299.00
2023-06-06T07:21:28.112Z,2289.00
2023-06-06T07:22:27.988Z,2222.00
2023-06-06T07:23:28.048Z,2228.00
2023-06-06T07:24:28.055Z,2245.00
2023-06-06T07:25:28.320Z,2237.00
2023-06-06T07:26:28.094Z,2205.00
2023-06-06T07:27:28.107Z,2125.00
2023-06-06T07:28:28.123Z,2102.00
2023-06-06T07:29:28.143Z,2063.00
2023-06-06T07:30:28.241Z,2030.00
2023-06-06T07:31:28.200Z,1926.00
2023-06-06T07:32:28.260Z,1880.00
2023-06-06T07:33:28.172Z,1741.00
2023-06-06T07:34:28.203Z,1759.00
2023-06-06T07:35:28.233Z,1586.00
2023-06-06T07:36:28.248Z,1490.00
2023-06-06T07:37:28.271Z,1457.00
2023-06-06T07:38:28.321Z,1371.00
2023-06-06T07:39:28.314Z,1316.00
2023-06-06T07:40:28.753Z,1239.00
2023-06-06T07:41:28.409Z,1211.00
2023-06-06T07:42:28.457Z,1177.00
2023-06-06T07:43:28.493Z,1130.00
2023-06-06T07:44:28.525Z,1097.00
2023-06-06T07:45:28.599Z,1082.00
2023-06-06T07:46:28.826Z,1075.00
2023-06-06T07:47:28.697Z,1073.00
2023-06-06T07:48:28.740Z,1046.00
2023-06-06T07:49:28.792Z,1036.00
2023-06-06T07:50:28.894Z,976.00
2023-06-06T07:51:28.903Z,941.00
2023-06-06T07:52:28.947Z,916.00
2023-06-06T07:53:29.041Z,880.00
2023-06-06T07:54:29.021Z,880.00
2023-06-06T07:55:29.072Z,799.00
2023-06-06T07:56:29.082Z,754.00
2023-06-06T07:57:29.144Z,713.00
2023-06-06T07:58:29.206Z,692.00
2023-06-06T07:59:29.283Z,700.00
2023-06-06T08:00:29.335Z,674.00
2023-06-06T08:01:29.400Z,658.00
2023-06-06T08:02:29.544Z,696.00
2023-06-06T08:03:29.558Z,691.00
2023-06-06T08:04:29.622Z,728.00
2023-06-06T08:05:29.672Z,762.00
2023-06-06T08:06:29.699Z,788.00
2023-06-06T08:07:31.823Z,820.00
2023-06-06T08:08:29.828Z,801.00
2023-06-06T08:09:30.120Z,691.00
2023-06-06T08:10:29.882Z,660.00
2023-06-06T08:11:29.906Z,659.00
2023-06-06T08:12:29.926Z,657.00
2023-06-06T08:13:29.978Z,698.00
2023-06-06T08:14:30.042Z,698.00
2023-06-06T08:15:30.151Z,663.00
2023-06-06T08:16:30.161Z,652.00
2023-06-06T08:17:30.280Z,650.00
2023-06-06T08:18:30.353Z,623.00
2023-06-06T08:19:30.318Z,621.00
2023-06-06T08:20:30.849Z,596.00
2023-06-06T08:21:30.414Z,607.00
2023-06-06T08:22:30.518Z,631.00
2023-06-06T08:23:30.506Z,759.00
2023-06-06T08:24:30.552Z,929.00
2023-06-06T08:25:30.910Z,1181.00
2023-06-06T08:26:30.625Z,1355.00
2023-06-06T08:27:30.650Z,1486.00
2023-06-06T08:28:30.713Z,1501.00
2023-06-06T08:29:30.697Z,1555.00
2023-06-06T08:30:30.728Z,1598.00
2023-06-06T08:31:30.840Z,1579.00
2023-06-06T08:32:30.791Z,1564.00
2023-06-06T08:33:30.799Z,1527.00
2023-06-06T08:34:30.843Z,1505.00
2023-06-06T08:35:30.890Z,1527.00
2023-06-06T08:36:30.912Z,1530.00
2023-06-06T08:37:30.962Z,1517.00
2023-06-06T08:38:30.981Z,1462.00
2023-06-06T08:39:31.259Z,1382.00
2023-06-06T08:40:31.065Z,1372.00
2023-06-06T08:41:31.136Z,1463.00
2023-06-06T08:42:31.108Z,1540.00
2023-06-06T08:43:31.121Z,1637.00
2023-06-06T08:44:31.150Z,1715.00
2023-06-06T08:45:31.212Z,1724.00
2023-06-06T08:46:31.285Z,1747.00
2023-06-06T08:47:31.284Z,1761.00
2023-06-06T08:48:31.270Z,1865.00
2023-06-06T08:49:31.258Z,1803.00
2023-06-06T08:50:31.257Z,1746.00
2023-06-06T08:51:31.262Z,1836.00
2023-06-06T08:52:31.293Z,1873.00
2023-06-06T08:53:31.302Z,1822.00
2023-06-06T08:54:31.309Z,1845.00
2023-06-06T08:55:31.345Z,1763.00
2023-06-06T08:56:31.367Z,1805.00
2023-06-06T08:57:31.480Z,1871.00
2023-06-06T08:58:31.450Z,1922.00
2023-06-06T08:59:31.493Z,1922.00
2023-06-06T09:00:31.587Z,1853.00
2023-06-06T09:01:31.645Z,1820.00
2023-06-06T09:02:31.685Z,1878.00
2023-06-06T09:03:34.055Z,1947.00
2023-06-06T09:04:31.634Z,1949.00
2023-06-06T09:05:31.829Z,1958.00
2023-06-06T09:06:31.654Z,1978.00
2023-06-06T09:07:31.645Z,1985.00
2023-06-06T09:08:31.629Z,1998.00
2023-06-06T09:09:31.615Z,2070.00
2023-06-06T09:10:31.779Z,2026.00
2023-06-06T09:11:31.619Z,2051.00
2023-06-06T09:12:31.640Z,2017.00
2023-06-06T09:13:31.662Z,2046.00
2023-06-06T09:14:31.578Z,2064.00
2023-06-06T09:15:31.812Z,2068.00
2023-06-06T09:16:31.612Z,2087.00
2023-06-06T09:17:31.592Z,2115.00
2023-06-06T09:18:31.581Z,2132.00
2023-06-06T09:19:31.557Z,2131.00
2023-06-06T09:20:31.840Z,2139.00
2023-06-06T09:21:31.555Z,2137.00
2023-06-06T09:22:31.526Z,2076.00
2023-06-06T09:23:31.613Z,1996.00
2023-06-06T09:24:31.579Z,1966.00
2023-06-06T09:25:31.618Z,1909.00
2023-06-06T09:26:31.554Z,1884.00
2023-06-06T09:27:31.513Z,1765.00
2023-06-06T09:28:31.490Z,1869.00
2023-06-06T09:29:31.601Z,2034.00
2023-06-06T09:30:31.818Z,2059.00
2023-06-06T09:31:32.069Z,1988.00
2023-06-06T09:32:32.029Z,1817.00
2023-06-06T09:33:31.874Z,1798.00
2023-06-06T09:34:31.831Z,1566.00
2023-06-06T09:35:31.900Z,1206.00
2023-06-06T09:36:31.940Z,1069.00
2023-06-06T09:37:32.041Z,909.00
2023-06-06T09:38:32.060Z,754.00
2023-06-06T09:39:32.081Z,694.00
2023-06-06T09:40:32.339Z,716.00
2023-06-06T09:41:32.204Z,672.00
2023-06-06T09:42:32.216Z,695.00
2023-06-06T09:43:32.286Z,655.00
2023-06-06T09:44:32.341Z,659.00
2023-06-06T09:45:32.499Z,647.00
2023-06-06T09:46:32.561Z,628.00
2023-06-06T09:47:32.752Z,624.00
2023-06-06T09:48:32.565Z,656.00
2023-06-06T09:49:32.635Z,673.00
2023-06-06T09:50:32.843Z,690.00
2023-06-06T09:51:33.022Z,695.00
2023-06-06T09:52:32.825Z,753.00
2023-06-06T09:53:33.205Z,765.00
2023-06-06T09:54:32.942Z,787.00
2023-06-06T09:55:33.316Z,781.00
2023-06-06T09:56:33.029Z,742.00
2023-06-06T09:57:33.321Z,760.00
2023-06-06T09:58:33.146Z,760.00
2023-06-06T09:59:33.190Z,791.00
2023-06-06T10:00:33.306Z,772.00
2023-06-06T10:01:33.356Z,772.00
2023-06-06T10:02:34.180Z,781.00
2023-06-06T10:03:33.604Z,718.00
2023-06-06T10:04:33.523Z,663.00
2023-06-06T10:05:33.494Z,656.00
2023-06-06T10:06:33.540Z,629.00
2023-06-06T10:07:33.605Z,612.00
2023-06-06T10:08:33.626Z,580.00
2023-06-06T10:09:33.809Z,572.00
2023-06-06T10:10:33.882Z,563.00
2023-06-06T10:11:33.758Z,540.00
2023-06-06T10:12:33.846Z,528.00
2023-06-06T10:13:33.873Z,515.00
2023-06-06T10:14:33.953Z,531.00
2023-06-06T10:15:34.000Z,510.00
2023-06-06T10:16:34.034Z,498.00
2023-06-06T10:17:34.103Z,515.00
2023-06-06T10:18:34.112Z,511.00
2023-06-06T10:19:34.166Z,505.00
2023-06-06T10:20:34.331Z,534.00
2023-06-06T10:21:34.269Z,500.00
2023-06-06T10:22:34.311Z,519.00
2023-06-06T10:23:34.504Z,500.00
2023-06-06T10:24:35.683Z,499.00
2023-06-06T10:25:34.817Z,486.00
2023-06-06T10:26:34.435Z,508.00
2023-06-06T10:27:34.486Z,525.00
2023-06-06T10:28:34.407Z,511.00
2023-06-06T10:29:34.428Z,500.00
2023-06-06T10:30:34.829Z,523.00
2023-06-06T10:31:34.406Z,566.00
2023-06-06T10:32:34.396Z,575.00
2023-06-06T10:33:34.449Z,610.00
2023-06-06T10:34:34.361Z,624.00
2023-06-06T10:35:34.831Z,661.00
2023-06-06T10:36:34.331Z,729.00
2023-06-06T10:37:34.334Z,857.00
2023-06-06T10:38:34.306Z,938.00
2023-06-06T10:39:34.314Z,954.00
2023-06-06T10:40:34.353Z,976.00
2023-06-06T10:41:34.291Z,1061.00
2023-06-06T10:42:34.296Z,1126.00
2023-06-06T10:43:35.094Z,1174.00
2023-06-06T10:44:34.273Z,1180.00
2023-06-06T10:45:34.274Z,1188.00
2023-06-06T10:46:34.326Z,1155.00
2023-06-06T10:47:34.606Z,1155.00
2023-06-06T10:48:34.302Z,1155.00
2023-06-06T10:49:34.302Z,1229.00
2023-06-06T10:50:34.303Z,1217.00
2023-06-06T10:51:34.275Z,1189.00
2023-06-06T10:52:34.265Z,1116.00
2023-06-06T10:53:34.253Z,1182.00
2023-06-06T10:54:34.263Z,1209.00
2023-06-06T10:55:34.333Z,1202.00
2023-06-06T10:56:34.290Z,1218.00
2023-06-06T10:57:34.294Z,1230.00
2023-06-06T10:58:34.348Z,1254.00
2023-06-06T10:59:34.384Z,1241.00
2023-06-06T11:00:34.451Z,1210.00
2023-06-06T11:01:34.591Z,1206.00
2023-06-06T11:02:34.688Z,1201.00
2023-06-06T11:03:34.780Z,1135.00
2023-06-06T11:04:34.695Z,1140.00
2023-06-06T11:05:34.866Z,1188.00
2023-06-06T11:06:34.822Z,1165.00
2023-06-06T11:07:34.896Z,1129.00
2023-06-06T11:08:34.997Z,1101.00
2023-06-06T11:09:35.080Z,1110.00
2023-06-06T11:10:35.365Z,1084.00
2023-06-06T11:11:35.094Z,1054.00
2023-06-06T11:12:35.166Z,1081.00
2023-06-06T11:13:35.381Z,1054.00
2023-06-06T11:14:35.289Z,1013.00
2023-06-06T11:15:35.304Z,991.00
2023-06-06T11:16:35.585Z,960.00
2023-06-06T11:17:35.501Z,944.00
2023-06-06T11:18:35.443Z,869.00
2023-06-06T11:19:35.512Z,684.00
2023-06-06T11:20:35.564Z,611.00
2023-06-06T11:21:35.772Z,619.00
2023-06-06T11:22:35.633Z,641.00
2023-06-06T11:23:35.735Z,715.00
2023-06-06T11:24:35.766Z,703.00
2023-06-06T11:25:35.835Z,577.00
2023-06-06T11:26:35.866Z,574.00
2023-06-06T11:27:35.980Z,595.00
2023-06-06T11:28:35.954Z,602.00
2023-06-06T11:29:36.007Z,639.00
2023-06-06T11:30:36.114Z,640.00
2023-06-06T11:31:36.157Z,620.00
2023-06-06T11:32:36.178Z,599.00
2023-06-06T11:33:36.201Z,616.00
2023-06-06T11:34:36.217Z,620.00
2023-06-06T11:35:36.289Z,580.00
2023-06-06T11:36:36.290Z,554.00
2023-06-06T11:37:36.362Z,506.00
2023-06-06T11:38:36.409Z,516.00
2023-06-06T11:39:36.470Z,520.00
2023-06-06T11:40:36.543Z,561.00
2023-06-06T11:41:36.512Z,564.00
2023-06-06T11:42:36.574Z,520.00
2023-06-06T11:43:36.653Z,495.00
2023-06-06T11:44:36.644Z,500.00
2023-06-06T11:45:36.709Z,495.00
2023-06-06T11:46:36.821Z,500.00
2023-06-06T11:47:36.836Z,539.00
2023-06-06T11:48:36.885Z,488.00
2023-06-06T11:49:36.905Z,515.00
2023-06-06T11:50:36.973Z,541.00
2023-06-06T11:51:36.992Z,516.00
2023-06-06T11:52:37.054Z,551.00
2023-06-06T11:53:37.115Z,529.00
2023-06-06T11:54:37.127Z,529.00
2023-06-06T11:55:37.185Z,496.00
2023-06-06T11:56:37.415Z,502.00
2023-06-06T11:57:37.292Z,517.00
2023-06-06T11:58:37.340Z,506.00
2023-06-06T11:59:37.388Z,495.00
2023-06-06T12:00:37.450Z,508.00
2023-06-06T12:01:37.494Z,558.00
2023-06-06T12:02:37.641Z,526.00
2023-06-06T12:03:37.705Z,539.00
2023-06-06T12:04:37.663Z,518.00
2023-06-06T12:05:37.802Z,513.00
2023-06-06T12:06:37.733Z,519.00
2023-06-06T12:07:37.757Z,595.00
2023-06-06T12:08:37.800Z,622.00
2023-06-06T12:09:37.954Z,866.00
2023-06-06T12:10:37.903Z,1121.00
2023-06-06T12:11:37.939Z,1226.00